createdAt,value
2023-03-17T00:00:35.662Z,97828.46
2023-03-17T00:03:22.684Z,97828.70
2023-03-17T00:05:52.690Z,97834.61
2023-03-17T00:08:28.862Z,97836.77
2023-03-17T00:10:58.586Z,97833.42
2023-03-17T00:13:28.470Z,97834.52
2023-03-17T00:16:02.363Z,97833.73
2023-03-17T00:18:32.083Z,97837.86
2023-03-17T00:21:01.190Z,97836.73
2023-03-17T00:23:30.312Z,97833.00
2023-03-17T00:25:59.196Z,97834.02
2023-03-17T00:28:28.678Z,97836.41
2023-03-17T00:30:59.841Z,97838.45
2023-03-17T00:33:30.732Z,97838.40
2023-03-17T00:35:59.981Z,97841.05
2023-03-17T00:38:30.320Z,97837.86
2023-03-17T00:41:01.088Z,97839.13
2023-03-17T00:43:31.687Z,97839.91
2023-03-17T00:46:02.597Z,97838.29
2023-03-17T00:48:32.128Z,97839.63
2023-03-17T00:51:01.940Z,97841.19
2023-03-17T00:53:31.509Z,97836.41
2023-03-17T00:56:01.375Z,97841.58
2023-03-17T00:58:35.943Z,97838.86
2023-03-17T01:01:07.558Z,97837.35
2023-03-17T01:03:38.947Z,97837.88
2023-03-17T01:06:11.588Z,97839.98
2023-03-17T01:08:42.712Z,97841.41
2023-03-17T01:11:19.524Z,97840.07
2023-03-17T01:13:50.402Z,97840.77
2023-03-17T01:16:20.917Z,97841.65
2023-03-17T01:18:50.343Z,97839.45
2023-03-17T01:21:20.193Z,97839.34
2023-03-17T01:23:50.275Z,97835.00
2023-03-17T01:26:20.059Z,97834.09
2023-03-17T01:28:50.779Z,97835.38
2023-03-17T01:31:21.362Z,97834.92
2023-03-17T01:33:52.189Z,97838.62
2023-03-17T01:36:22.594Z,97837.67
2023-03-17T01:38:52.079Z,97838.98
2023-03-17T01:41:22.961Z,97842.34
2023-03-17T01:43:53.694Z,97846.54
2023-03-17T01:46:29.743Z,97845.46
2023-03-17T01:49:06.157Z,97845.64
2023-03-17T01:51:49.805Z,97849.95
2023-03-17T01:54:27.135Z,97856.19
2023-03-17T01:57:00.257Z,97857.10
2023-03-17T01:59:35.289Z,97859.86
2023-03-17T02:02:11.193Z,97861.91
2023-03-17T02:04:44.243Z,97859.48
2023-03-17T02:07:15.108Z,97860.80
2023-03-17T02:09:46.660Z,97862.77
2023-03-17T02:12:16.600Z,97865.45
2023-03-17T02:14:48.489Z,97864.01
2023-03-17T02:17:20.071Z,97863.78
2023-03-17T02:19:51.853Z,97866.98
2023-03-17T02:22:22.384Z,97874.13
2023-03-17T02:24:54.305Z,97875.94
2023-03-17T02:27:39.652Z,97877.08
2023-03-17T02:30:21.795Z,97882.64
2023-03-17T02:32:52.148Z,97882.02
2023-03-17T02:35:26.966Z,97881.55
2023-03-17T02:37:57.908Z,97882.61
2023-03-17T02:40:28.974Z,97885.54
2023-03-17T02:43:00.362Z,97888.14
2023-03-17T02:45:34.150Z,97893.30
2023-03-17T02:48:05.247Z,97897.01
2023-03-17T02:50:35.991Z,97898.48
2023-03-17T02:53:05.664Z,97900.96
2023-03-17T02:55:35.296Z,97903.81
2023-03-17T02:58:05.006Z,97906.46
2023-03-17T03:00:36.232Z,97908.08
2023-03-17T03:03:07.359Z,97910.22
2023-03-17T03:05:36.987Z,97911.98
2023-03-17T03:08:06.597Z,97912.02
2023-03-17T03:10:37.082Z,97917.13
2023-03-17T03:13:06.640Z,97916.56
2023-03-17T03:15:36.313Z,97919.58
2023-03-17T03:18:06.589Z,97927.59
2023-03-17T03:20:36.395Z,97929.47
2023-03-17T03:23:05.821Z,97934.65
2023-03-17T03:25:38.260Z,97936.42
2023-03-17T03:28:08.899Z,97937.86
2023-03-17T03:30:39.981Z,97936.93
2023-03-17T03:33:11.427Z,97941.89
2023-03-17T03:35:41.731Z,97944.25
2023-03-17T03:38:12.504Z,97944.91
2023-03-17T03:40:43.441Z,97950.00
2023-03-17T03:43:22.753Z,97951.23
2023-03-17T03:45:55.261Z,97954.84
2023-03-17T03:48:25.950Z,97954.90
2023-03-17T03:50:59.715Z,97958.21
2023-03-17T03:53:29.653Z,97957.92
2023-03-17T03:55:58.820Z,97959.33
2023-03-17T03:58:27.959Z,97961.58
2023-03-17T04:00:57.496Z,97967.06
2023-03-17T04:03:27.878Z,97968.98
2023-03-17T04:05:58.611Z,97971.08
2023-03-17T04:08:28.220Z,97976.56
2023-03-17T04:10:58.221Z,97974.67
2023-03-17T04:13:27.713Z,97980.45
2023-03-17T04:15:58.174Z,97984.35
2023-03-17T04:18:27.880Z,97987.80
2023-03-17T04:20:58.082Z,97990.88
2023-03-17T04:23:28.998Z,97992.59
2023-03-17T04:25:58.817Z,97994.10
2023-03-17T04:28:30.268Z,97998.84
2023-03-17T04:30:59.904Z,98003.77
2023-03-17T04:33:30.977Z,98006.69
2023-03-17T04:35:59.941Z,98007.05
2023-03-17T04:38:29.567Z,98005.19
2023-03-17T04:40:58.309Z,98005.39
2023-03-17T04:43:27.649Z,98004.91
2023-03-17T04:45:57.447Z,98006.65
2023-03-17T04:48:26.917Z,98011.98
2023-03-17T04:50:56.033Z,98008.94
2023-03-17T04:53:25.311Z,98013.52
2023-03-17T04:55:55.785Z,98014.55
2023-03-17T04:58:30.686Z,98012.65
2023-03-17T05:01:01.101Z,98017.08
2023-03-17T05:03:32.031Z,98010.73
2023-03-17T05:06:01.440Z,98010.77
2023-03-17T05:08:30.147Z,98016.91
2023-03-17T05:10:59.759Z,98022.14
2023-03-17T05:13:28.739Z,98027.33
2023-03-17T05:16:00.019Z,98028.57
2023-03-17T05:18:28.671Z,98026.17
2023-03-17T05:20:58.051Z,98023.20
2023-03-17T05:23:27.267Z,98021.44
2023-03-17T05:25:56.145Z,98017.86
2023-03-17T05:28:25.469Z,98023.17
2023-03-17T05:30:54.628Z,98023.91
2023-03-17T05:33:23.432Z,98022.55
2023-03-17T05:35:52.746Z,98020.55
2023-03-17T05:38:21.720Z,98029.25
2023-03-17T05:40:51.732Z,98027.91
2023-03-17T05:43:21.340Z,98031.86
2023-03-17T05:45:50.904Z,98030.27
2023-03-17T05:48:20.008Z,98025.79
2023-03-17T05:50:49.036Z,98024.01
2023-03-17T05:53:18.329Z,98022.30
2023-03-17T05:55:48.145Z,98027.44
2023-03-17T05:58:17.862Z,98028.98
2023-03-17T06:00:46.679Z,98031.48
2023-03-17T06:03:15.363Z,98029.16
2023-03-17T06:05:45.066Z,98034.77
2023-03-17T06:08:14.250Z,98034.05
2023-03-17T06:10:43.345Z,98035.24
2023-03-17T06:13:12.433Z,98038.70
2023-03-17T06:15:43.438Z,98036.02
2023-03-17T06:18:13.283Z,98038.08
2023-03-17T06:20:41.893Z,98040.86
2023-03-17T06:23:10.882Z,98044.79
2023-03-17T06:25:39.645Z,98045.75
2023-03-17T06:28:08.132Z,98045.27
2023-03-17T06:30:40.496Z,98047.02
2023-03-17T06:33:10.346Z,98046.16
2023-03-17T06:35:39.251Z,98048.42
2023-03-17T06:38:08.096Z,98054.86
2023-03-17T06:40:37.720Z,98054.36
2023-03-17T06:43:06.597Z,98052.15
2023-03-17T06:45:35.900Z,98051.89
2023-03-17T06:48:04.992Z,98047.95
2023-03-17T06:50:34.080Z,98048.48
2023-03-17T06:53:03.312Z,98049.95
2023-03-17T06:55:32.474Z,98057.74
2023-03-17T06:58:03.332Z,98055.48
2023-03-17T07:00:33.582Z,98055.08
2023-03-17T07:03:03.343Z,98052.88
2023-03-17T07:05:32.845Z,98047.43
2023-03-17T07:08:03.787Z,98047.74
2023-03-17T07:10:33.579Z,98051.27
2023-03-17T07:13:02.796Z,98049.42
2023-03-17T07:15:35.277Z,98052.21
2023-03-17T07:18:05.392Z,98051.96
2023-03-17T07:20:34.296Z,98052.89
2023-03-17T07:23:03.418Z,98056.17
2023-03-17T07:25:32.078Z,98061.50
2023-03-17T07:28:01.483Z,98064.92
2023-03-17T07:30:30.259Z,98064.06
2023-03-17T07:32:59.209Z,98064.81
2023-03-17T07:35:29.507Z,98068.52
2023-03-17T07:37:58.469Z,98069.95
2023-03-17T07:40:27.349Z,98070.77
2023-03-17T07:42:55.834Z,98071.79
2023-03-17T07:45:27.233Z,98071.44
2023-03-17T07:47:56.076Z,98071.45
2023-03-17T07:50:24.965Z,98078.33
2023-03-17T07:52:53.646Z,98077.71
2023-03-17T07:55:22.741Z,98079.29
2023-03-17T07:57:51.746Z,98075.36
2023-03-17T08:00:21.982Z,98071.33
2023-03-17T08:03:07.010Z,98068.90
2023-03-17T08:05:38.472Z,98067.70
2023-03-17T08:08:06.977Z,98067.11
2023-03-17T08:10:36.590Z,98069.48
2023-03-17T08:13:06.387Z,98069.77
2023-03-17T08:15:35.055Z,98065.80
2023-03-17T08:18:04.466Z,98063.52
2023-03-17T08:20:34.515Z,98066.27
2023-03-17T08:23:03.871Z,98060.37
2023-03-17T08:25:32.364Z,98057.93
2023-03-17T08:28:01.192Z,98065.62
2023-03-17T08:30:32.842Z,98059.56
2023-03-17T08:33:04.522Z,98058.59
2023-03-17T08:35:33.508Z,98054.88
2023-03-17T08:38:02.750Z,98052.62
2023-03-17T08:40:33.507Z,98052.83
2023-03-17T08:43:05.239Z,98053.45
2023-03-17T08:45:34.495Z,98053.23
2023-03-17T08:48:03.639Z,98055.58
2023-03-17T08:50:32.674Z,98056.61
2023-03-17T08:53:01.822Z,98055.40
2023-03-17T08:55:30.711Z,98050.52
2023-03-17T08:57:59.824Z,98045.59
2023-03-17T09:00:28.728Z,98051.73
2023-03-17T09:03:00.075Z,98048.34
2023-03-17T09:05:29.083Z,98050.74
2023-03-17T09:07:58.273Z,98050.66
2023-03-17T09:10:26.924Z,98045.68
2023-03-17T09:13:01.658Z,98046.13
2023-03-17T09:15:34.448Z,98043.70
2023-03-17T09:18:03.648Z,98046.66
2023-03-17T09:20:33.425Z,98040.97
2023-03-17T09:23:05.606Z,98033.47
2023-03-17T09:25:37.880Z,98031.81
2023-03-17T09:28:08.023Z,98032.87
2023-03-17T09:30:37.093Z,98028.06
2023-03-17T09:33:06.081Z,98030.99
2023-03-17T09:35:34.684Z,98026.79
2023-03-17T09:38:03.255Z,98027.64
2023-03-17T09:40:34.768Z,98025.28
2023-03-17T09:43:06.478Z,98029.34
2023-03-17T09:45:39.569Z,98032.06
2023-03-17T09:48:12.435Z,98033.46
2023-03-17T09:50:47.683Z,98032.47
2023-03-17T09:53:19.025Z,98032.07
2023-03-17T09:55:48.792Z,98036.64
2023-03-17T09:58:21.201Z,98037.59
2023-03-17T10:00:50.196Z,98037.69
2023-03-17T10:03:26.263Z,98034.39
2023-03-17T10:06:11.453Z,98040.04
2023-03-17T10:08:46.664Z,98038.39
2023-03-17T10:11:51.196Z,98039.20
2023-03-17T10:14:52.137Z,98027.77
2023-03-17T10:17:23.689Z,98026.66
2023-03-17T10:20:02.866Z,98024.95
2023-03-17T10:22:36.729Z,98023.63
2023-03-17T10:25:16.877Z,98024.46
2023-03-17T10:27:57.550Z,98015.66
2023-03-17T10:30:26.737Z,98010.14
2023-03-17T10:32:57.785Z,98013.30
2023-03-17T10:35:27.080Z,98006.67
2023-03-17T10:38:11.841Z,98000.39
2023-03-17T10:40:45.747Z,98000.19
2023-03-17T10:43:19.557Z,97997.36
2023-03-17T10:46:08.620Z,97993.55
2023-03-17T10:48:38.441Z,97988.49
2023-03-17T10:51:10.804Z,97985.89
2023-03-17T10:53:43.633Z,97983.85
2023-03-17T10:56:20.838Z,97981.04
2023-03-17T10:58:50.785Z,97978.90
2023-03-17T11:01:28.143Z,97972.95
2023-03-17T11:03:57.864Z,97971.79
2023-03-17T11:06:42.507Z,97972.38
2023-03-17T11:09:17.231Z,97968.61
2023-03-17T11:11:49.338Z,97966.35
2023-03-17T11:14:19.675Z,97961.96
2023-03-17T11:16:54.200Z,97955.78
2023-03-17T11:19:41.512Z,97957.15
2023-03-17T11:22:15.428Z,97951.74
2023-03-17T11:25:07.272Z,97952.27
2023-03-17T11:27:41.292Z,97946.31
2023-03-17T11:30:17.111Z,97943.30
2023-03-17T11:32:50.768Z,97939.88
2023-03-17T11:35:35.133Z,97936.38
2023-03-17T11:38:03.549Z,97938.95
2023-03-17T11:40:41.042Z,97938.77
2023-03-17T11:43:26.829Z,97935.02
2023-03-17T11:45:55.683Z,97932.42
2023-03-17T11:48:28.409Z,97927.84
2023-03-17T11:50:59.650Z,97926.73
2023-03-17T11:54:04.069Z,97925.33
2023-03-17T11:56:48.322Z,97926.94
2023-03-17T11:59:16.788Z,97926.10
2023-03-17T12:01:56.781Z,97922.20
2023-03-17T12:04:34.819Z,97919.31
2023-03-17T12:07:24.236Z,97913.79
2023-03-17T12:10:05.141Z,97910.81
2023-03-17T12:12:39.709Z,97904.08
2023-03-17T12:15:15.052Z,97895.05
2023-03-17T12:17:56.643Z,97897.95
2023-03-17T12:20:30.397Z,97896.64
2023-03-17T12:23:17.978Z,97896.06
2023-03-17T12:26:01.312Z,97889.30
2023-03-17T12:28:34.696Z,97884.33
2023-03-17T12:31:08.034Z,97882.89
2023-03-17T12:33:36.685Z,97873.17
2023-03-17T12:36:06.131Z,97874.30
2023-03-17T12:38:36.169Z,97872.30
2023-03-17T12:41:14.725Z,97877.27
2023-03-17T12:43:56.204Z,97874.14
2023-03-17T12:46:24.960Z,97870.88
2023-03-17T12:48:56.526Z,97868.65
2023-03-17T12:51:48.680Z,97873.42
2023-03-17T12:54:21.674Z,97870.59
2023-03-17T12:56:50.875Z,97868.82
2023-03-17T12:59:21.910Z,97870.64
2023-03-17T13:02:00.383Z,97868.86
2023-03-17T13:04:33.324Z,97863.84
2023-03-17T13:07:22.498Z,97865.76
2023-03-17T13:09:54.338Z,97869.79
2023-03-17T13:12:44.939Z,97863.55
2023-03-17T13:15:25.708Z,97859.73
2023-03-17T13:18:12.541Z,97858.95
2023-03-17T13:21:01.267Z,97854.27
2023-03-17T13:23:35.893Z,97854.42
2023-03-17T13:26:04.779Z,97854.64
2023-03-17T13:28:37.159Z,97856.73
2023-03-17T13:31:12.764Z,97853.23
2023-03-17T13:33:46.808Z,97849.00
2023-03-17T13:36:26.660Z,97844.31
2023-03-17T13:39:15.469Z,97842.95
2023-03-17T13:42:05.533Z,97833.88
2023-03-17T13:44:52.546Z,97831.33
2023-03-17T13:47:35.971Z,97831.90
2023-03-17T13:50:09.272Z,97828.23
2023-03-17T13:52:40.694Z,97831.09
2023-03-17T13:55:24.112Z,97828.09
2023-03-17T13:58:10.588Z,97826.67
2023-03-17T14:00:41.647Z,97823.31
2023-03-17T14:03:25.747Z,97823.84
2023-03-17T14:05:54.608Z,97824.47
2023-03-17T14:08:29.333Z,97823.06
2023-03-17T14:11:02.011Z,97824.73
2023-03-17T14:13:43.597Z,97825.01
2023-03-17T14:16:15.060Z,97827.11
2023-03-17T14:18:47.825Z,97831.14
2023-03-17T14:21:21.335Z,97827.18
2023-03-17T14:24:16.022Z,97827.63
2023-03-17T14:26:44.508Z,97826.86
2023-03-17T14:29:15.384Z,97822.30
2023-03-17T14:31:47.864Z,97825.16
2023-03-17T14:34:17.013Z,97822.01
2023-03-17T14:36:45.497Z,97819.16
2023-03-17T14:39:24.816Z,97817.48
2023-03-17T14:42:00.994Z,97819.27
2023-03-17T14:44:36.650Z,97820.47
2023-03-17T14:47:07.630Z,97814.89
2023-03-17T14:49:37.079Z,97817.23
2023-03-17T14:52:05.699Z,97815.77
2023-03-17T14:54:35.577Z,97811.50
2023-03-17T14:57:09.095Z,97811.39
2023-03-17T14:59:38.806Z,97812.07
2023-03-17T15:02:22.760Z,97811.76
2023-03-17T15:04:58.686Z,97809.55
2023-03-17T15:07:32.585Z,97812.32
2023-03-17T15:10:04.663Z,97809.95
2023-03-17T15:12:33.657Z,97811.71
2023-03-17T15:15:04.589Z,97808.10
2023-03-17T15:17:37.184Z,97805.66
2023-03-17T15:20:23.867Z,97805.08
2023-03-17T15:23:00.760Z,97805.46
2023-03-17T15:25:32.520Z,97803.89
2023-03-17T15:28:01.216Z,97803.24
2023-03-17T15:30:44.392Z,97799.55
2023-03-17T15:33:18.333Z,97797.44
2023-03-17T15:35:47.336Z,97798.81
2023-03-17T15:38:16.589Z,97804.32
2023-03-17T15:40:45.927Z,97804.82
2023-03-17T15:43:18.102Z,97811.33
2023-03-17T15:45:47.649Z,97811.05
2023-03-17T15:48:17.926Z,97818.46
2023-03-17T15:50:47.838Z,97820.66
2023-03-17T15:53:16.220Z,97817.72
2023-03-17T15:55:45.207Z,97820.16
2023-03-17T15:58:14.205Z,97828.64
2023-03-17T16:00:44.414Z,97834.17
2023-03-17T16:03:21.398Z,97835.73
2023-03-17T16:05:49.888Z,97835.92
2023-03-17T16:08:18.561Z,97843.38
2023-03-17T16:10:47.254Z,97842.34
2023-03-17T16:13:16.039Z,97845.20
2023-03-17T16:15:47.634Z,97843.95
2023-03-17T16:18:18.520Z,97845.92
2023-03-17T16:20:48.492Z,97848.46
2023-03-17T16:23:18.547Z,97850.33
2023-03-17T16:25:47.139Z,97846.77
2023-03-17T16:28:26.273Z,97847.98
2023-03-17T16:30:56.007Z,97853.30
2023-03-17T16:33:25.385Z,97852.13
2023-03-17T16:35:56.151Z,97850.71
2023-03-17T16:38:25.928Z,97854.06
2023-03-17T16:40:55.539Z,97852.98
2023-03-17T16:43:27.219Z,97857.84
2023-03-17T16:46:00.117Z,97860.49
2023-03-17T16:48:29.068Z,97857.04
2023-03-17T16:50:57.962Z,97858.56
2023-03-17T16:53:26.849Z,97861.45
2023-03-17T16:55:55.847Z,97863.30
2023-03-17T16:58:29.751Z,97858.88
2023-03-17T17:01:00.179Z,97861.69
2023-03-17T17:03:29.476Z,97866.30
2023-03-17T17:05:57.998Z,97865.09
2023-03-17T17:08:26.649Z,97866.32
2023-03-17T17:10:55.028Z,97867.23
2023-03-17T17:13:23.711Z,97867.34
2023-03-17T17:15:52.645Z,97867.41
2023-03-17T17:18:22.218Z,97864.15
2023-03-17T17:20:52.122Z,97861.35
2023-03-17T17:23:24.707Z,97869.35
2023-03-17T17:25:54.106Z,97866.14
2023-03-17T17:28:24.121Z,97870.70
2023-03-17T17:30:53.626Z,97872.66
2023-03-17T17:33:22.410Z,97874.52
2023-03-17T17:35:51.331Z,97873.85
2023-03-17T17:38:21.830Z,97872.59
2023-03-17T17:40:50.948Z,97876.13
2023-03-17T17:43:20.172Z,97876.73
2023-03-17T17:45:49.116Z,97875.04
2023-03-17T17:48:18.618Z,97878.34
2023-03-17T17:50:47.106Z,97876.98
2023-03-17T17:53:15.686Z,97878.86
2023-03-17T17:55:45.084Z,97877.89
2023-03-17T17:58:17.873Z,97878.30
2023-03-17T18:00:46.487Z,97877.19
2023-03-17T18:03:14.935Z,97882.16
2023-03-17T18:05:43.411Z,97883.66
2023-03-17T18:08:13.961Z,97883.86
2023-03-17T18:10:42.733Z,97880.84
2023-03-17T18:13:11.209Z,97882.16
2023-03-17T18:15:40.104Z,97881.63
2023-03-17T18:18:08.797Z,97883.86
2023-03-17T18:20:37.278Z,97884.43
2023-03-17T18:23:06.050Z,97886.62
2023-03-17T18:25:34.635Z,97884.50
2023-03-17T18:28:03.630Z,97885.50
2023-03-17T18:30:35.303Z,97886.34
2023-03-17T18:33:12.639Z,97890.38
2023-03-17T18:35:41.931Z,97886.36
2023-03-17T18:38:10.565Z,97885.27
2023-03-17T18:40:39.039Z,97885.58
2023-03-17T18:43:07.625Z,97890.79
2023-03-17T18:45:36.476Z,97891.02
2023-03-17T18:48:05.098Z,97893.39
2023-03-17T18:50:34.009Z,97893.97
2023-03-17T18:53:02.773Z,97896.16
2023-03-17T18:55:31.258Z,97895.71
2023-03-17T18:57:59.787Z,97892.36
2023-03-17T19:00:28.422Z,97892.88
2023-03-17T19:02:57.261Z,97896.85
2023-03-17T19:05:26.312Z,97898.59
2023-03-17T19:07:54.777Z,97898.23
2023-03-17T19:10:23.169Z,97899.27
2023-03-17T19:12:52.455Z,97905.50
2023-03-17T19:15:22.077Z,97899.73
2023-03-17T19:17:50.958Z,97899.02
2023-03-17T19:20:20.365Z,97900.86
2023-03-17T19:22:49.045Z,97900.54
2023-03-17T19:25:18.243Z,97907.12
2023-03-17T19:27:46.618Z,97910.83
2023-03-17T19:30:15.201Z,97912.51
2023-03-17T19:32:43.735Z,97911.25
2023-03-17T19:35:12.587Z,97916.20
2023-03-17T19:37:41.266Z,97914.42
2023-03-17T19:40:10.586Z,97915.18
2023-03-17T19:42:39.259Z,97920.52
2023-03-17T19:45:08.341Z,97923.16
2023-03-17T19:47:37.230Z,97921.74
2023-03-17T19:50:05.915Z,97928.66
2023-03-17T19:52:34.405Z,97924.96
2023-03-17T19:55:03.188Z,97925.78
2023-03-17T19:57:32.386Z,97928.06
2023-03-17T20:00:00.887Z,97928.98
2023-03-17T20:02:29.450Z,97927.48
2023-03-17T20:04:57.828Z,97924.11
2023-03-17T20:07:26.652Z,97923.48
2023-03-17T20:09:55.200Z,97923.20
2023-03-17T20:12:23.912Z,97924.83
2023-03-17T20:14:52.567Z,97921.65
2023-03-17T20:17:20.945Z,97918.23
2023-03-17T20:19:49.325Z,97914.27
2023-03-17T20:22:17.807Z,97911.25
2023-03-17T20:24:46.596Z,97912.96
2023-03-17T20:27:16.206Z,97910.84
2023-03-17T20:29:45.601Z,97911.32
2023-03-17T20:32:15.316Z,97910.05
2023-03-17T20:34:44.097Z,97907.89
2023-03-17T20:37:14.339Z,97908.32
2023-03-17T20:39:42.807Z,97906.55
2023-03-17T20:42:14.856Z,97912.30
2023-03-17T20:44:43.357Z,97915.52
2023-03-17T20:47:13.774Z,97926.08
2023-03-17T20:49:42.968Z,97923.67
2023-03-17T20:52:13.564Z,97923.27
2023-03-17T20:54:42.191Z,97925.56
2023-03-17T20:57:14.251Z,97924.61
2023-03-17T20:59:44.165Z,97932.21
2023-03-17T21:02:17.873Z,97930.84
2023-03-17T21:04:49.065Z,97933.64
2023-03-17T21:07:19.243Z,97936.28
2023-03-17T21:09:48.229Z,97933.36
2023-03-17T21:12:19.267Z,97930.48
2023-03-17T21:14:51.154Z,97926.98
2023-03-17T21:17:19.609Z,97929.48
2023-03-17T21:19:48.200Z,97926.86
2023-03-17T21:22:18.110Z,97929.05
2023-03-17T21:24:47.307Z,97925.07
2023-03-17T21:27:16.009Z,97923.95
2023-03-17T21:29:44.588Z,97924.88
2023-03-17T21:32:13.051Z,97924.39
2023-03-17T21:34:42.045Z,97921.60
2023-03-17T21:37:11.344Z,97926.52
2023-03-17T21:39:40.442Z,97920.73
2023-03-17T21:42:10.223Z,97922.13
2023-03-17T21:44:39.038Z,97921.40
2023-03-17T21:47:08.028Z,97922.42
2023-03-17T21:49:36.615Z,97922.08
2023-03-17T21:52:05.510Z,97921.06
2023-03-17T21:54:35.324Z,97919.76
2023-03-17T21:57:04.811Z,97918.45
2023-03-17T21:59:35.979Z,97918.71
2023-03-17T22:02:05.065Z,97916.75
2023-03-17T22:04:33.550Z,97918.38
2023-03-17T22:07:04.787Z,97913.33
2023-03-17T22:09:33.789Z,97912.66
2023-03-17T22:12:04.019Z,97910.83
2023-03-17T22:14:35.714Z,97910.31
2023-03-17T22:17:05.781Z,97910.88
2023-03-17T22:19:34.360Z,97910.24
2023-03-17T22:22:04.081Z,97906.88
2023-03-17T22:24:32.765Z,97901.13
2023-03-17T22:27:01.239Z,97905.45
2023-03-17T22:29:30.854Z,97906.35
2023-03-17T22:32:00.145Z,97909.09
2023-03-17T22:34:28.706Z,97907.91
2023-03-17T22:36:57.520Z,97907.91
2023-03-17T22:39:26.418Z,97907.29
2023-03-17T22:41:55.417Z,97910.89
2023-03-17T22:44:24.099Z,97911.44
2023-03-17T22:46:53.077Z,97914.20
2023-03-17T22:49:22.274Z,97915.55
2023-03-17T22:51:50.978Z,97910.98
2023-03-17T22:54:19.548Z,97916.84
2023-03-17T22:56:48.950Z,97917.00
2023-03-17T22:59:17.440Z,97918.90
2023-03-17T23:01:46.120Z,97921.13
2023-03-17T23:04:15.357Z,97922.88
2023-03-17T23:06:43.910Z,97922.36
2023-03-17T23:09:12.899Z,97921.53
2023-03-17T23:11:43.072Z,97923.63
2023-03-17T23:14:12.106Z,97922.81
2023-03-17T23:16:41.280Z,97924.38
2023-03-17T23:19:10.090Z,97930.02
2023-03-17T23:21:39.509Z,97925.96
2023-03-17T23:24:09.109Z,97927.88
2023-03-17T23:26:38.104Z,97926.52
2023-03-17T23:29:08.744Z,97921.38
2023-03-17T23:31:39.168Z,97923.76
2023-03-17T23:34:08.560Z,97923.77
2023-03-17T23:36:41.031Z,97922.05
2023-03-17T23:39:10.036Z,97925.98
2023-03-17T23:41:38.926Z,97926.36
2023-03-17T23:44:07.702Z,97925.58
2023-03-17T23:46:37.286Z,97929.05
2023-03-17T23:49:07.613Z,97927.05
2023-03-17T23:51:36.216Z,97926.40
2023-03-17T23:54:06.392Z,97925.20
2023-03-17T23:56:36.394Z,97928.59
2023-03-17T23:59:07.856Z,97925.20
